createdAt,value
2022-11-04T04:59:07.530Z,15.85
2022-11-04T05:02:10.758Z,16.90
2022-11-04T05:08:30.479Z,16.70
2022-11-04T05:11:33.228Z,16.27
2022-11-04T05:14:36.322Z,18.17
2022-11-04T05:17:38.864Z,16.17
2022-11-04T05:20:41.527Z,15.57
2022-11-04T05:23:43.910Z,17.25
2022-11-04T05:26:46.574Z,15.60
2022-11-04T05:29:49.294Z,16.50
2022-11-04T05:32:52.157Z,16.37
2022-11-04T05:35:54.644Z,17.02
2022-11-04T05:38:57.409Z,16.35
2022-11-04T05:42:00.940Z,16.55
2022-11-04T05:45:04.609Z,16.05
2022-11-04T05:48:07.093Z,16.80
2022-11-04T05:51:14.355Z,16.55
2022-11-04T05:54:16.837Z,18.40
2022-11-04T05:57:19.549Z,18.85
2022-11-04T06:00:22.316Z,17.05
2022-11-04T06:03:25.044Z,18.73
2022-11-04T06:06:31.355Z,17.42
2022-11-04T06:09:40.095Z,19.02
2022-11-04T06:12:42.540Z,18.30
2022-11-04T06:15:45.202Z,16.83
2022-11-04T06:18:47.970Z,17.37
2022-11-04T06:21:50.789Z,17.75
2022-11-04T06:24:56.497Z,17.77
2022-11-04T06:27:59.379Z,18.73
2022-11-04T06:31:04.155Z,18.55
2022-11-04T06:34:06.844Z,16.40
2022-11-04T06:37:10.090Z,17.08
2022-11-04T06:40:13.118Z,17.58
2022-11-04T06:43:15.521Z,16.80
2022-11-04T06:46:33.590Z,16.98
2022-11-04T06:49:36.111Z,16.62
2022-11-04T06:52:42.258Z,17.40
2022-11-04T06:55:45.533Z,17.58
2022-11-04T06:58:52.346Z,17.25
2022-11-04T07:01:54.988Z,17.20
2022-11-04T07:08:05.419Z,18.42
2022-11-04T07:11:08.322Z,17.05
2022-11-04T07:14:11.646Z,17.15
2022-11-04T07:17:14.507Z,17.92
2022-11-04T07:20:17.181Z,17.37
2022-11-04T07:23:19.866Z,18.98
2022-11-04T07:26:22.302Z,16.48
2022-11-04T07:29:25.559Z,16.50
2022-11-04T07:32:28.279Z,17.02
2022-11-04T07:35:31.098Z,17.75
2022-11-04T07:38:33.631Z,17.87
2022-11-04T07:41:36.396Z,16.75
2022-11-04T07:44:39.265Z,17.75
2022-11-04T07:47:42.407Z,18.33
2022-11-04T07:50:44.862Z,17.05
2022-11-04T07:53:47.969Z,16.67
2022-11-04T07:56:50.513Z,15.82
2022-11-04T07:59:53.353Z,17.27
2022-11-04T08:02:55.805Z,19.08
2022-11-04T08:06:00.224Z,16.85
2022-11-04T08:09:02.885Z,16.40
2022-11-04T08:12:06.326Z,17.65
2022-11-04T08:15:09.158Z,15.82
2022-11-04T08:18:11.907Z,18.58
2022-11-04T08:21:15.003Z,15.85
2022-11-04T08:24:17.765Z,17.58
2022-11-04T08:27:20.185Z,17.75
2022-11-04T08:30:23.061Z,17.85
2022-11-04T08:33:27.221Z,17.87
2022-11-04T08:36:33.496Z,17.90
2022-11-04T08:39:36.101Z,17.67
2022-11-04T08:42:38.922Z,17.30
2022-11-04T08:45:43.748Z,19.15
2022-11-04T08:48:46.470Z,17.73
2022-11-04T08:51:56.222Z,17.65
2022-11-04T08:54:59.049Z,17.27
2022-11-04T08:58:02.212Z,18.12
2022-11-04T09:01:06.857Z,17.05
2022-11-04T09:04:11.927Z,16.92
2022-11-04T09:07:14.813Z,18.62
2022-11-04T09:10:17.380Z,19.17
2022-11-04T09:13:20.073Z,18.73
2022-11-04T09:16:22.512Z,18.90
2022-11-04T09:19:25.533Z,17.75
2022-11-04T09:22:28.362Z,18.08
2022-11-04T09:25:32.985Z,18.65
2022-11-04T09:28:35.555Z,18.80
2022-11-04T09:31:39.195Z,19.15
2022-11-04T09:34:41.687Z,18.98
2022-11-04T09:37:44.688Z,18.02
2022-11-04T09:40:50.611Z,19.30
2022-11-04T09:44:17.511Z,19.70
2022-11-04T09:47:22.408Z,18.42
2022-11-04T09:50:28.648Z,20.35
2022-11-04T09:53:40.753Z,18.67
2022-11-04T09:56:45.793Z,20.90
2022-11-04T09:59:48.920Z,19.90
2022-11-04T10:03:24.094Z,20.50
2022-11-04T10:06:56.041Z,20.90
2022-11-04T10:09:58.541Z,21.17
2022-11-04T10:13:15.481Z,21.52
2022-11-04T10:16:22.233Z,19.12
2022-11-04T10:19:52.044Z,18.67
2022-11-04T10:22:58.999Z,20.98
2022-11-04T10:26:37.086Z,21.05
2022-11-04T10:29:48.633Z,20.75
2022-11-04T10:33:14.172Z,20.10
2022-11-04T10:36:17.755Z,20.95
2022-11-04T10:39:29.105Z,20.08
2022-11-04T10:42:32.800Z,19.65
2022-11-04T10:45:46.754Z,20.75
2022-11-04T10:48:57.692Z,21.12
2022-11-04T10:52:00.681Z,22.35
2022-11-04T10:55:11.547Z,21.67
2022-11-04T10:58:24.665Z,21.55
2022-11-04T11:01:30.973Z,21.37
2022-11-04T11:04:35.881Z,21.83
2022-11-04T11:07:38.582Z,21.85
2022-11-04T11:10:51.326Z,20.52
2022-11-04T11:13:53.743Z,23.05
2022-11-04T11:16:58.073Z,22.73
2022-11-04T11:20:15.033Z,23.48
2022-11-04T11:23:47.289Z,21.85
2022-11-04T11:26:55.555Z,21.90
2022-11-04T11:29:58.456Z,21.60
2022-11-04T11:33:17.825Z,21.87
2022-11-04T11:39:44.027Z,22.37
2022-11-04T11:42:47.005Z,21.80
2022-11-04T11:45:50.770Z,21.00
2022-11-04T11:49:01.113Z,23.70
2022-11-04T11:52:32.442Z,21.05
2022-11-04T11:55:37.804Z,22.27
2022-11-04T12:02:12.632Z,21.95
2022-11-04T12:09:20.693Z,23.12
2022-11-04T12:12:48.034Z,21.73
2022-11-04T12:16:06.491Z,22.45
2022-11-04T12:19:26.345Z,23.75
2022-11-04T12:26:12.385Z,20.45
2022-11-04T12:29:37.339Z,21.77
2022-11-04T12:32:58.409Z,21.70
2022-11-04T12:36:14.096Z,24.05
2022-11-04T12:39:29.238Z,23.25
2022-11-04T12:43:05.170Z,23.17
2022-11-04T12:46:26.160Z,22.92
2022-11-04T12:50:00.108Z,23.17
2022-11-04T12:53:30.106Z,23.15
2022-11-04T12:59:43.571Z,21.90
2022-11-04T13:02:51.844Z,23.05
2022-11-04T13:06:01.110Z,21.17
2022-11-04T13:09:13.178Z,23.50
2022-11-04T13:12:21.205Z,22.37
2022-11-04T13:15:30.962Z,22.30
2022-11-04T13:18:39.802Z,22.73
2022-11-04T13:21:43.438Z,22.05
2022-11-04T13:24:51.385Z,21.02
2022-11-04T13:27:54.005Z,23.05
2022-11-04T13:31:22.919Z,22.40
2022-11-04T13:34:54.737Z,22.10
2022-11-04T13:38:12.868Z,21.85
2022-11-04T13:41:40.843Z,22.83
2022-11-04T13:44:53.982Z,23.85
2022-11-04T13:47:58.873Z,21.80
2022-11-04T13:51:05.301Z,21.55
2022-11-04T13:54:41.908Z,22.23
2022-11-04T13:58:17.883Z,21.92
2022-11-04T14:01:23.672Z,21.45
2022-11-04T14:04:30.703Z,22.25
2022-11-04T14:07:59.286Z,22.62
2022-11-04T14:11:05.828Z,20.80
2022-11-04T14:14:19.678Z,23.70
2022-11-04T14:17:34.772Z,24.48
2022-11-04T14:20:37.285Z,22.90
2022-11-04T14:23:46.309Z,23.65
2022-11-04T14:26:50.929Z,22.13
2022-11-04T14:29:54.443Z,22.62
2022-11-04T14:33:01.112Z,20.80
2022-11-04T14:36:22.471Z,22.33
2022-11-04T14:39:31.381Z,21.90
2022-11-04T14:42:50.716Z,21.52
2022-11-04T14:45:55.527Z,20.95
2022-11-04T14:49:02.160Z,20.65
2022-11-04T14:52:14.837Z,22.08
2022-11-04T14:55:21.332Z,21.70
2022-11-04T14:58:27.184Z,21.33
2022-11-04T15:01:34.963Z,21.48
2022-11-04T15:04:38.030Z,22.33
2022-11-04T15:07:41.262Z,21.98
2022-11-04T15:10:49.902Z,20.88
2022-11-04T15:13:59.256Z,21.35
2022-11-04T15:17:02.892Z,21.25
2022-11-04T15:20:06.171Z,20.90
2022-11-04T15:23:14.685Z,21.30
2022-11-04T15:26:30.598Z,22.23
2022-11-04T15:29:33.542Z,22.17
2022-11-04T15:32:36.368Z,21.35
2022-11-04T15:35:43.453Z,22.35
2022-11-04T15:39:11.963Z,22.15
2022-11-04T15:42:39.990Z,21.90
2022-11-04T15:45:46.047Z,21.87
2022-11-04T15:49:19.575Z,19.65
2022-11-04T15:52:27.603Z,21.15
2022-11-04T15:55:32.155Z,20.85
2022-11-04T15:58:35.563Z,22.13
2022-11-04T16:01:45.869Z,21.30
2022-11-04T16:05:02.624Z,20.85
2022-11-04T16:08:21.986Z,20.20
2022-11-04T16:11:25.002Z,20.60
2022-11-04T16:14:30.135Z,21.42
2022-11-04T16:17:33.457Z,22.65
2022-11-04T16:20:36.309Z,22.00
2022-11-04T16:23:50.117Z,21.05
2022-11-04T16:26:57.834Z,20.88
2022-11-04T16:30:03.727Z,22.27
2022-11-04T16:33:11.762Z,22.23
2022-11-04T16:36:23.513Z,20.90
2022-11-04T16:39:26.159Z,22.00
2022-11-04T16:42:29.079Z,22.62
2022-11-04T16:45:34.651Z,21.33
2022-11-04T16:48:37.985Z,23.10
2022-11-04T16:51:40.969Z,21.40
2022-11-04T16:54:47.195Z,20.92
2022-11-04T16:58:01.519Z,22.13
